Terminal Aerodrome Forecast
Issued by NWS

Home | Current Version | Previous Version | Graphics & Text | Print | Product List | Glossary On
Versions: 1 2 3 4 5 6 7 8 9 10 11 12 13 14 15 16 17 18 19 20
000
FTUS43 KGRB 011100
TAFAUW
TAF
KAUW 011137Z 0112/0212 13008KT P6SM BKN110
     FM011700 16014G24KT P6SM SCT110
     FM020000 20011G17KT P6SM SCT040 BKN080 WS012/22040KT
      TEMPO 0206/0210 4SM -SHRA BR BKN020 OVC040
     FM021000 28010G17KT 4SM SHRA BR BKN015 OVC040=

USA.gov is the U.S. government's official web portal to all federal, state and local government web resources and services.